Time;durP1;ratioP1;P1;durP2;ratioP2;P2;SDS_P1;SDS_P2;PMS_P1;PMS_P2;Temp;Humidity;BMP_temperature;BMP_pressure;BME280_temperature;BME280_humidity;BME280_pressure;Samples;Min_cycle;Max_cycle;Signal;HPM_P1;HPM_P2
2022/08/12 00:44:43;;;;;;;7.97;6.40;;;15.10;99.90;;;;;;5054575;28;20044;-56
2022/08/12 00:47:12;;;;;;;9.55;7.20;;;15.00;99.90;;;;;;5044698;28;20045;-55
2022/08/12 00:49:53;;;;;;;7.65;6.00;;;15.00;99.90;;;;;;5037765;28;20120;-56
2022/08/12 00:52:21;;;;;;;7.78;6.32;;;15.10;99.90;;;;;;5052673;28;20048;-57
2022/08/12 00:54:56;;;;;;;8.52;6.07;;;15.10;99.90;;;;;;5054260;28;20053;-56
2022/08/12 00:57:34;;;;;;;7.60;6.75;;;15.10;99.90;;;;;;5053887;28;20075;-55
2022/08/12 01:00:05;;;;;;;7.28;6.18;;;15.10;99.90;;;;;;5053713;28;21000;-56
2022/08/12 01:02:34;;;;;;;7.28;5.88;;;15.10;99.90;;;;;;5053567;28;20044;-57
2022/08/12 01:13:28;;;;;;;8.05;6.50;;;15.00;99.90;;;;;;5053393;28;20051;-54
2022/08/12 01:16:00;;;;;;;7.78;6.88;;;15.00;99.90;;;;;;5052094;28;20048;-54
2022/08/12 01:18:32;;;;;;;10.15;6.65;;;15.00;99.90;;;;;;5054134;28;20048;-55
2022/08/12 01:21:08;;;;;;;10.85;6.32;;;15.00;99.90;;;;;;5053453;28;20059;-53
2022/08/12 01:23:46;;;;;;;6.78;6.10;;;14.90;99.90;;;;;;5053326;28;20048;-55
2022/08/12 01:26:18;;;;;;;7.75;6.25;;;14.90;99.90;;;;;;5053827;28;20070;-55
2022/08/12 01:28:47;;;;;;;6.65;6.00;;;14.90;99.90;;;;;;5052763;28;20078;-55
2022/08/12 01:31:18;;;;;;;11.00;6.05;;;14.80;99.90;;;;;;5054096;28;20048;-55
2022/08/12 01:34:01;;;;;;;8.32;6.82;;;14.80;99.90;;;;;;5053385;28;20044;-55
2022/08/12 01:36:35;;;;;;;12.38;7.18;;;14.80;99.90;;;;;;5054081;28;20048;-53
2022/08/12 01:39:03;;;;;;;9.32;6.78;;;14.70;99.90;;;;;;5052576;28;20051;-56
2022/08/12 01:41:34;;;;;;;7.68;6.18;;;14.70;99.90;;;;;;5052594;28;20122;-57
2022/08/12 01:44:01;;;;;;;8.75;6.05;;;14.60;99.90;;;;;;5052201;28;20036;-55
2022/08/12 01:46:55;;;;;;;6.70;6.10;;;14.60;99.90;;;;;;5052209;28;20118;-56
2022/08/12 01:49:59;;;;;;;6.15;5.40;;;14.60;99.90;;;;;;5037800;28;20040;-54
2022/08/12 01:52:39;;;;;;;8.40;6.00;;;14.70;99.90;;;;;;5020359;28;20057;-55
2022/08/12 01:55:08;;;;;;;7.43;5.13;;;14.60;99.90;;;;;;5032925;28;20049;-55
2022/08/12 01:57:43;;;;;;;7.95;6.47;;;14.70;99.90;;;;;;5031569;28;20041;-55
2022/08/12 02:00:43;;;;;;;12.93;6.30;;;14.60;99.90;;;;;;5032780;28;20776;-54
2022/08/12 02:13:36;;;;;;;;;;;14.50;99.90;;;;;;5051402;28;20135;-55
2022/08/12 02:16:49;;;;;;;6.72;6.03;;;14.50;99.90;;;;;;5051694;28;19928;-55
2022/08/12 02:19:38;;;;;;;9.50;7.05;;;14.50;99.90;;;;;;5052885;28;20044;-56
2022/08/12 02:22:27;;;;;;;7.95;7.15;;;14.50;99.90;;;;;;5051418;28;20044;-56
2022/08/12 02:25:05;;;;;;;8.98;6.65;;;14.40;99.90;;;;;;5052324;28;20442;-56
2022/08/12 02:27:41;;;;;;;8.35;6.75;;;14.30;99.90;;;;;;5050526;28;20113;-54
2022/08/12 02:30:13;;;;;;;7.88;6.32;;;14.30;99.90;;;;;;5031830;28;20052;-53
2022/08/12 02:32:44;;;;;;;7.00;6.28;;;14.30;99.90;;;;;;5030935;28;20119;-57
2022/08/12 02:35:14;;;;;;;10.00;6.47;;;14.30;99.90;;;;;;5032312;28;20048;-54
2022/08/12 02:37:42;;;;;;;6.70;6.10;;;14.30;99.90;;;;;;5032535;28;20645;-54
2022/08/12 02:40:11;;;;;;;7.20;6.32;;;14.30;99.90;;;;;;5043195;28;20438;-55
2022/08/12 02:42:55;;;;;;;10.75;6.45;;;14.30;99.90;;;;;;5051800;28;20704;-55
2022/08/12 02:45:40;;;;;;;7.85;6.28;;;14.20;99.90;;;;;;5051195;28;20514;-56
2022/08/12 02:48:09;;;;;;;7.22;6.53;;;14.20;99.90;;;;;;5052757;28;20111;-55
2022/08/12 02:50:51;;;;;;;16.05;8.00;;;14.30;99.90;;;;;;5033176;28;20537;-55
2022/08/12 02:53:19;;;;;;;11.88;7.82;;;14.20;99.90;;;;;;5051846;28;20055;-55
2022/08/12 02:55:46;;;;;;;9.77;8.55;;;14.10;99.90;;;;;;5052233;28;20095;-55
2022/08/12 02:58:14;;;;;;;10.27;8.88;;;14.10;99.90;;;;;;5051617;28;20045;-54
2022/08/12 03:00:42;;;;;;;9.90;7.50;;;14.00;99.90;;;;;;5052147;28;20798;-54
2022/08/12 03:03:12;;;;;;;9.38;7.47;;;14.00;99.90;;;;;;5040214;28;20045;-54
2022/08/12 03:05:56;;;;;;;7.45;6.15;;;13.90;99.90;;;;;;5032203;28;20106;-55
2022/08/12 03:08:30;;;;;;;8.15;6.90;;;13.90;99.90;;;;;;5032072;28;20053;-56
2022/08/12 03:11:05;;;;;;;11.30;6.20;;;13.90;99.90;;;;;;5045436;28;20040;-53
2022/08/12 03:13:44;;;;;;;7.43;6.60;;;13.90;99.90;;;;;;5036488;28;20037;-56
2022/08/12 03:16:13;;;;;;;7.05;6.03;;;14.00;99.90;;;;;;5051511;28;20087;-55
2022/08/12 03:18:42;;;;;;;7.93;7.22;;;13.90;99.90;;;;;;5052461;28;20119;-54
2022/08/12 03:21:15;;;;;;;8.75;7.32;;;13.90;99.90;;;;;;5051196;28;20088;-55
2022/08/12 03:23:44;;;;;;;6.93;6.22;;;13.90;99.90;;;;;;5051889;28;20049;-56
2022/08/12 03:26:13;;;;;;;10.40;7.60;;;13.90;99.90;;;;;;5052726;28;20040;-54
2022/08/12 03:28:50;;;;;;;8.30;7.50;;;13.90;99.90;;;;;;5052054;28;20044;-55
2022/08/12 03:31:20;;;;;;;9.85;7.35;;;13.80;99.90;;;;;;5053098;28;20055;-56
2022/08/12 03:33:48;;;;;;;9.15;6.40;;;13.80;99.90;;;;;;5052413;28;20083;-56
2022/08/12 03:36:32;;;;;;;8.63;7.05;;;13.80;99.90;;;;;;5053199;28;20063;-56
2022/08/12 03:42:21;;;;;;;7.18;6.25;;;13.70;99.90;;;;;;5057089;28;20093;-56
2022/08/12 04:02:03;;;;;;;6.95;5.70;;;13.70;99.90;;;;;;5034656;28;20789;-58
2022/08/12 04:04:33;;;;;;;8.13;6.68;;;13.60;99.90;;;;;;5036182;28;20041;-55
2022/08/12 04:07:06;;;;;;;7.03;5.93;;;13.60;99.90;;;;;;5036543;28;20563;-54
2022/08/12 04:09:36;;;;;;;9.23;6.18;;;13.50;99.90;;;;;;5036449;28;20052;-54
2022/08/12 04:14:53;;;;;;;9.30;6.68;;;13.50;99.90;;;;;;5054974;28;20114;-55
2022/08/12 04:17:20;;;;;;;12.30;6.47;;;13.50;99.90;;;;;;5054269;28;20044;-55
2022/08/12 04:19:48;;;;;;;8.35;7.35;;;13.50;99.90;;;;;;5055006;28;20044;-55
2022/08/12 04:22:15;;;;;;;11.50;7.38;;;13.40;99.90;;;;;;5055274;28;20529;-55
2022/08/12 04:24:43;;;;;;;9.70;7.30;;;13.40;99.90;;;;;;5056148;28;20096;-55
2022/08/12 04:27:16;;;;;;;8.55;7.65;;;13.40;99.90;;;;;;5053302;28;20052;-55
2022/08/12 04:29:43;;;;;;;;;;;13.40;99.90;;;;;;5055712;28;20173;-55
2022/08/12 04:32:31;;;;;;;11.15;7.78;;;13.40;99.90;;;;;;5054537;28;20477;-52
2022/08/12 04:34:58;;;;;;;8.73;7.38;;;13.40;99.90;;;;;;5053189;28;20131;-50
2022/08/12 04:37:26;;;;;;;10.40;6.82;;;13.40;99.90;;;;;;5054776;28;20554;-51
2022/08/12 04:39:53;;;;;;;9.52;6.90;;;13.40;99.90;;;;;;5038148;28;20044;-53
2022/08/12 04:42:22;;;;;;;10.02;7.13;;;13.40;99.90;;;;;;5053557;28;20047;-50
2022/08/12 04:44:49;;;;;;;8.38;6.53;;;13.40;99.90;;;;;;5054385;28;20590;-52
2022/08/12 04:47:16;;;;;;;;;;;13.40;99.90;;;;;;5054622;28;20048;-50
2022/08/12 04:49:46;;;;;;;9.27;8.27;;;13.50;99.90;;;;;;5054450;28;20048;-53
2022/08/12 04:52:14;;;;;;;9.57;7.60;;;13.50;99.90;;;;;;5037971;28;20102;-53
2022/08/12 04:54:42;;;;;;;10.63;8.65;;;13.50;99.90;;;;;;5054954;28;20052;-51
2022/08/12 04:57:09;;;;;;;10.35;8.25;;;13.50;99.90;;;;;;5054912;28;20067;-52
2022/08/12 04:59:37;;;;;;;21.75;8.32;;;13.50;99.90;;;;;;5053733;28;20045;-52
2022/08/12 05:02:15;;;;;;;13.60;8.43;;;13.50;99.90;;;;;;5053994;28;20207;-50
2022/08/12 05:04:50;;;;;;;18.65;9.23;;;13.50;99.90;;;;;;5055082;28;20043;-49
2022/08/12 05:07:17;;;;;;;8.82;7.82;;;13.60;99.90;;;;;;5054610;28;20044;-50
2022/08/12 05:09:44;;;;;;;8.57;7.63;;;13.70;99.90;;;;;;5054948;28;20036;-51
2022/08/12 05:12:33;;;;;;;8.82;7.60;;;13.80;99.90;;;;;;5054327;28;20116;-52
2022/08/12 05:15:00;;;;;;;9.23;7.35;;;13.80;99.90;;;;;;5053903;28;20041;-51
2022/08/12 05:17:27;;;;;;;9.45;7.63;;;13.90;99.90;;;;;;5053648;28;20707;-50
2022/08/12 05:19:54;;;;;;;9.23;7.65;;;13.90;99.90;;;;;;5054373;28;20044;-51
2022/08/12 05:22:24;;;;;;;10.15;7.75;;;14.00;99.90;;;;;;5054345;28;20041;-51
2022/08/12 05:24:52;;;;;;;8.30;6.78;;;14.00;99.90;;;;;;5052942;28;20056;-52
2022/08/12 05:27:21;;;;;;;8.05;7.25;;;14.00;99.90;;;;;;5054276;28;20120;-53
2022/08/12 05:29:48;;;;;;;11.80;7.47;;;14.00;99.90;;;;;;5052360;28;20124;-51
2022/08/12 05:32:35;;;;;;;9.85;7.43;;;14.10;99.90;;;;;;5053149;28;20535;-51
2022/08/12 05:35:05;;;;;;;11.40;8.10;;;14.10;99.90;;;;;;5054303;28;20056;-51
2022/08/12 05:37:33;;;;;;;8.85;7.25;;;14.10;99.90;;;;;;5053938;28;20135;-51
2022/08/12 05:40:02;;;;;;;10.27;7.53;;;14.20;99.90;;;;;;5054160;28;20033;-51
2022/08/12 05:42:36;;;;;;;7.97;7.18;;;14.30;99.90;;;;;;5053748;28;20098;-50
2022/08/12 05:45:04;;;;;;;8.93;6.97;;;14.30;99.90;;;;;;5053566;28;20060;-52
2022/08/12 05:47:31;;;;;;;9.93;7.20;;;14.40;99.90;;;;;;5053213;28;20486;-51
2022/08/12 05:50:18;;;;;;;8.60;6.60;;;14.50;99.90;;;;;;5052130;28;20067;-50
2022/08/12 05:52:45;;;;;;;7.65;6.75;;;14.60;99.90;;;;;;5039808;28;20135;-51
2022/08/12 05:55:14;;;;;;;8.35;7.00;;;14.60;99.90;;;;;;5032756;28;20049;-50
2022/08/12 05:57:47;;;;;;;11.05;7.35;;;14.70;99.90;;;;;;5032991;28;20041;-50
2022/08/12 06:00:16;;;;;;;11.25;6.43;;;14.80;99.90;;;;;;5034605;28;20735;-50
2022/08/12 06:02:45;;;;;;;7.63;6.43;;;14.80;99.90;;;;;;5033028;28;20634;-53
2022/08/12 06:05:12;;;;;;;8.73;7.82;;;14.90;99.90;;;;;;5034125;28;20127;-51
2022/08/12 06:07:41;;;;;;;6.95;6.28;;;15.00;99.90;;;;;;5032306;28;20106;-51
2022/08/12 06:10:29;;;;;;;9.38;7.30;;;15.10;99.90;;;;;;5042379;28;20036;-49
2022/08/12 06:13:04;;;;;;;8.77;5.72;;;15.20;99.90;;;;;;5051216;28;20048;-54
2022/08/12 06:15:36;;;;;;;6.00;5.35;;;15.30;99.90;;;;;;5053371;28;20040;-55
2022/08/12 06:18:08;;;;;;;6.55;5.90;;;15.40;99.90;;;;;;5053466;28;20657;-58
2022/08/12 06:20:45;;;;;;;6.32;5.38;;;15.50;99.90;;;;;;5053221;28;20118;-58
2022/08/12 06:23:14;;;;;;;11.38;6.50;;;15.60;99.90;;;;;;5052599;28;20032;-55
2022/08/12 06:25:42;;;;;;;7.38;5.97;;;15.70;99.90;;;;;;5052710;28;20555;-55
2022/08/12 06:28:19;;;;;;;8.30;6.75;;;15.80;99.90;;;;;;5053907;28;20044;-54
2022/08/12 06:30:47;;;;;;;18.42;7.05;;;15.90;99.90;;;;;;5051865;28;20253;-56
2022/08/12 06:33:34;;;;;;;7.35;6.07;;;16.00;99.90;;;;;;5051999;28;20710;-57
2022/08/12 06:36:23;;;;;;;12.70;6.70;;;16.00;99.90;;;;;;5052790;28;20051;-57
2022/08/12 06:38:56;;;;;;;12.88;6.53;;;16.20;99.90;;;;;;5053503;28;20055;-54
2022/08/12 06:44:29;;;;;;;7.43;6.55;;;16.40;99.90;;;;;;5052973;28;20056;-57
2022/08/12 06:46:56;;;;;;;13.40;6.60;;;16.40;99.90;;;;;;5053341;28;20044;-53
2022/08/12 06:49:24;;;;;;;10.55;6.53;;;16.50;99.90;;;;;;5052693;28;20048;-54
2022/08/12 06:51:54;;;;;;;9.85;6.30;;;16.60;99.90;;;;;;5052687;28;20048;-57
2022/08/12 06:54:24;;;;;;;10.57;6.57;;;16.70;99.90;;;;;;5044937;28;20059;-56
2022/08/12 06:57:01;;;;;;;7.68;6.20;;;16.80;99.90;;;;;;5033189;28;20052;-57
2022/08/12 06:59:49;;;;;;;8.57;6.32;;;16.90;99.90;;;;;;5033810;28;20056;-57
2022/08/12 07:02:18;;;;;;;6.97;6.10;;;17.00;99.90;;;;;;5032809;28;20120;-55
2022/08/12 07:04:46;;;;;;;5.25;4.75;;;17.10;99.90;;;;;;5033654;28;20049;-57
2022/08/12 07:07:13;;;;;;;7.65;6.35;;;17.20;99.90;;;;;;5031291;28;20115;-56
2022/08/12 07:09:41;;;;;;;9.43;6.57;;;17.30;99.90;;;;;;5036720;28;20078;-54
2022/08/12 07:12:28;;;;;;;7.80;5.25;;;17.30;99.90;;;;;;5052025;28;20072;-55
2022/08/12 07:15:00;;;;;;;7.07;5.88;;;17.40;99.90;;;;;;5055531;28;20032;-54
2022/08/12 07:17:35;;;;;;;10.27;7.05;;;17.50;99.90;;;;;;5055806;28;20540;-60
2022/08/12 07:20:09;;;;;;;10.73;6.53;;;17.50;99.90;;;;;;5056467;28;20094;-54
2022/08/12 07:22:57;;;;;;;13.30;6.30;;;17.70;99.90;;;;;;5064546;28;20048;-56
2022/08/12 07:25:29;;;;;;;9.95;5.72;;;17.70;99.90;;;;;;5062540;28;20041;-57
2022/08/12 07:28:08;;;;;;;8.55;5.47;;;17.80;99.90;;;;;;5064353;28;20053;-57
2022/08/12 07:30:45;;;;;;;9.52;5.07;;;17.80;99.90;;;;;;5059759;28;20055;-53
2022/08/12 07:33:14;;;;;;;6.65;5.45;;;18.00;99.90;;;;;;5057341;28;20052;-55
2022/08/12 07:35:46;;;;;;;7.38;5.43;;;18.10;99.90;;;;;;5042740;28;20115;-55
2022/08/12 07:38:32;;;;;;;6.80;6.13;;;18.30;99.90;;;;;;5058869;28;20051;-54
2022/08/12 07:41:04;;;;;;;11.77;6.75;;;18.50;99.90;;;;;;5058011;28;20151;-56
2022/08/12 07:43:36;;;;;;;10.02;5.40;;;18.50;99.90;;;;;;5055671;28;20049;-55
2022/08/12 07:46:07;;;;;;;9.95;5.88;;;18.70;99.90;;;;;;5059120;28;20488;-55
2022/08/12 07:48:37;;;;;;;9.98;5.25;;;18.70;99.90;;;;;;5058071;28;20048;-55
2022/08/12 07:51:04;;;;;;;9.32;5.75;;;18.80;99.90;;;;;;5058604;28;20044;-55
2022/08/12 07:53:32;;;;;;;5.70;5.20;;;18.90;99.90;;;;;;5057500;28;20048;-55
2022/08/12 07:56:14;;;;;;;7.80;4.78;;;19.00;99.90;;;;;;5059211;28;20076;-56
2022/08/12 07:58:41;;;;;;;6.07;4.60;;;19.20;99.90;;;;;;5057649;28;20040;-56
2022/08/12 08:01:20;;;;;;;4.72;3.78;;;19.40;99.90;;;;;;5057594;28;20040;-57
2022/08/12 08:06:43;;;;;;;5.43;4.07;;;20.70;99.90;;;;;;5057573;28;20136;-54
2022/08/12 08:09:13;;;;;;;10.07;3.95;;;21.40;99.90;;;;;;5058740;28;20079;-53
2022/08/12 08:14:27;;;;;;;8.88;3.95;;;22.50;97.30;;;;;;5057893;28;20041;-52
2022/08/12 08:16:56;;;;;;;6.78;3.53;;;22.80;92.50;;;;;;5057156;28;20048;-52
2022/08/12 08:19:24;;;;;;;9.43;3.83;;;22.90;91.00;;;;;;5057043;28;20101;-51
2022/08/12 08:21:57;;;;;;;7.10;4.13;;;23.10;89.60;;;;;;5057637;28;20041;-53
2022/08/12 08:24:26;;;;;;;6.47;3.97;;;23.30;87.50;;;;;;5056962;28;20507;-54
2022/08/12 08:26:57;;;;;;;10.60;3.47;;;23.50;88.20;;;;;;5056496;28;20044;-52
2022/08/12 08:29:24;;;;;;;6.88;3.30;;;23.70;81.40;;;;;;5057139;28;20046;-53
2022/08/12 08:31:59;;;;;;;9.95;3.50;;;23.60;79.30;;;;;;5058626;28;20056;-49
2022/08/12 08:34:28;;;;;;;6.95;2.80;;;23.70;78.90;;;;;;5056485;28;20041;-47
2022/08/12 08:37:15;;;;;;;5.53;3.33;;;23.90;80.90;;;;;;5037458;28;20125;-50
2022/08/12 08:39:43;;;;;;;4.88;3.15;;;24.10;77.40;;;;;;5046277;28;20145;-47
2022/08/12 08:44:57;;;;;;;9.32;3.50;;;24.30;71.40;;;;;;5055903;28;20040;-53
2022/08/12 08:47:24;;;;;;;6.88;3.17;;;24.40;71.30;;;;;;5056792;28;20048;-51
2022/08/12 08:49:51;;;;;;;10.02;3.13;;;24.50;72.50;;;;;;5057922;28;20582;-54
2022/08/12 08:52:24;;;;;;;5.70;3.05;;;24.60;69.30;;;;;;5056360;28;20040;-63
2022/08/12 08:55:06;;;;;;;6.38;3.28;;;24.80;68.50;;;;;;5057378;28;20052;-62
2022/08/12 08:57:33;;;;;;;2.70;2.50;;;25.00;65.80;;;;;;5057585;28;20053;-63
2022/08/12 09:00:16;;;;;;;4.93;2.92;;;25.30;67.20;;;;;;5057332;28;20170;-63
2022/08/12 09:02:43;;;;;;;10.18;3.53;;;25.60;65.80;;;;;;5057308;28;20037;-62
2022/08/12 09:05:24;;;;;;;5.88;2.85;;;25.90;63.10;;;;;;5040733;28;20047;-62
2022/08/12 09:07:51;;;;;;;3.78;3.00;;;25.90;58.60;;;;;;5057596;28;20603;-62
2022/08/12 09:10:38;;;;;;;3.80;2.50;;;26.10;59.10;;;;;;5056686;28;20059;-63
2022/08/12 09:13:33;;;;;;;4.88;2.38;;;26.20;56.90;;;;;;5054515;28;20078;-63
2022/08/12 09:16:20;;;;;;;9.98;2.95;;;26.40;56.90;;;;;;5056137;28;20095;-62
2022/08/12 09:18:48;;;;;;;4.80;2.80;;;26.60;56.20;;;;;;5055806;28;20093;-63
2022/08/12 09:21:20;;;;;;;6.38;2.65;;;26.70;55.20;;;;;;5056354;28;20047;-63
2022/08/12 09:23:49;;;;;;;3.50;3.00;;;26.70;56.30;;;;;;5056163;28;20090;-62
2022/08/12 09:26:37;;;;;;;4.82;3.20;;;26.80;55.30;;;;;;5057074;28;20041;-62
2022/08/12 09:29:14;;;;;;;10.02;3.30;;;27.00;53.60;;;;;;5056117;28;20044;-62
2022/08/12 09:31:41;;;;;;;7.88;2.92;;;27.00;55.00;;;;;;5056617;28;20101;-63
2022/08/12 09:34:28;;;;;;;4.13;2.88;;;27.00;52.90;;;;;;5055591;28;20044;-63
2022/08/12 09:37:03;;;;;;;5.18;2.40;;;27.10;52.50;;;;;;5042338;28;20714;-63
2022/08/12 09:39:48;;;;;;;9.75;3.25;;;27.10;52.00;;;;;;5044526;28;20117;-63
2022/08/12 09:45:45;;;;;;;4.50;2.50;;;27.10;51.70;;;;;;5055666;28;20098;-63
2022/08/12 09:48:33;;;;;;;11.93;2.47;;;27.20;51.70;;;;;;5056941;28;20040;-63
2022/08/12 09:51:03;;;;;;;7.93;2.72;;;27.30;51.50;;;;;;5055318;28;20040;-63
2022/08/12 09:53:30;;;;;;;4.85;2.80;;;27.40;51.00;;;;;;5055814;28;20045;-62
2022/08/12 09:56:18;;;;;;;7.18;2.80;;;27.30;51.30;;;;;;5056133;28;20048;-63
2022/08/12 09:59:08;;;;;;;5.82;2.22;;;27.40;51.10;;;;;;5055528;28;20044;-62
2022/08/12 10:01:37;;;;;;;8.07;2.78;;;27.40;49.60;;;;;;5055850;28;20055;-62
2022/08/12 10:04:24;;;;;;;4.88;2.35;;;27.50;49.90;;;;;;5055195;28;20414;-62
2022/08/12 10:06:51;;;;;;;3.75;2.40;;;27.60;49.90;;;;;;5056080;28;20037;-63
2022/08/12 10:09:22;;;;;;;4.38;2.70;;;27.60;49.50;;;;;;5055170;28;20419;-62
2022/08/12 10:15:16;;;;;;;2.65;1.80;;;27.70;47.80;;;;;;5054573;28;20052;-63
2022/08/12 10:18:04;;;;;;;3.53;2.33;;;27.70;46.20;;;;;;5055983;28;20044;-63
2022/08/12 10:20:33;;;;;;;4.65;2.30;;;27.80;46.80;;;;;;5054886;28;20108;-63
2022/08/12 10:23:00;;;;;;;2.03;1.80;;;27.80;46.30;;;;;;5055361;28;20049;-63
2022/08/12 10:31:29;;;;;;;2.85;2.00;;;27.90;46.50;;;;;;5055588;28;20098;-63
2022/08/12 10:34:17;;;;;;;4.32;1.80;;;28.10;45.90;;;;;;5054888;28;20044;-63
2022/08/12 10:36:57;;;;;;;4.97;1.70;;;28.30;44.00;;;;;;5053771;28;21063;-63
2022/08/12 10:39:45;;;;;;;2.65;2.20;;;28.30;44.10;;;;;;5044303;28;20040;-63
2022/08/12 10:45:26;;;;;;;4.10;1.70;;;28.30;43.50;;;;;;5053700;28;20051;-63
2022/08/12 10:47:56;;;;;;;3.25;1.90;;;28.40;43.30;;;;;;5055850;28;20582;-63
2022/08/12 10:50:43;;;;;;;2.40;2.20;;;28.40;43.00;;;;;;5055127;28;20042;-63
2022/08/12 10:53:29;;;;;;;5.85;2.13;;;28.40;43.60;;;;;;5035633;28;21020;-63
2022/08/12 10:56:14;;;;;;;4.25;1.90;;;28.50;42.30;;;;;;5033004;28;20618;-63
2022/08/12 10:58:41;;;;;;;3.13;1.98;;;28.70;43.60;;;;;;5054023;28;20045;-63
2022/08/12 11:01:14;;;;;;;13.15;1.92;;;28.80;43.40;;;;;;5055577;28;20044;-64
2022/08/12 11:04:01;;;;;;;2.08;1.63;;;28.80;43.20;;;;;;5055477;28;20051;-62
2022/08/12 11:06:49;;;;;;;;;;;28.90;40.40;;;;;;5056399;28;20040;-64
2022/08/12 11:09:37;;;;;;;4.05;1.90;;;28.90;40.80;;;;;;5054076;28;19924;-63
2022/08/12 11:12:17;;;;;;;2.67;1.58;;;29.10;39.90;;;;;;5054807;28;20758;-63
2022/08/12 11:15:05;;;;;;;7.07;1.75;;;29.10;40.50;;;;;;5051481;28;20682;-61
2022/08/12 11:17:49;;;;;;;2.83;1.50;;;29.20;39.20;;;;;;5054936;28;20048;-63
2022/08/12 11:20:23;;;;;;;3.38;1.15;;;29.20;39.60;;;;;;5054272;28;20045;-63
2022/08/12 11:23:03;;;;;;;2.17;1.92;;;29.30;39.90;;;;;;5054999;28;20094;-63
2022/08/12 11:25:50;;;;;;;7.80;1.98;;;29.30;39.90;;;;;;5053907;28;20044;-64
2022/08/12 11:28:25;;;;;;;4.60;1.40;;;29.30;38.50;;;;;;5054422;28;20052;-62
2022/08/12 11:31:03;;;;;;;2.85;1.42;;;29.20;37.70;;;;;;5054100;28;20186;-63
2022/08/12 11:33:30;;;;;;;4.80;1.90;;;29.20;37.90;;;;;;5054456;28;20044;-63
2022/08/12 11:36:18;;;;;;;5.13;2.03;;;29.30;38.50;;;;;;5054080;28;20052;-63
2022/08/12 11:38:49;;;;;;;6.22;2.08;;;29.30;38.90;;;;;;5044240;28;20740;-64
2022/08/12 11:41:20;;;;;;;6.07;1.80;;;29.30;39.00;;;;;;5035238;28;20052;-64
2022/08/12 11:44:01;;;;;;;4.25;1.60;;;29.40;38.50;;;;;;5037783;28;20577;-64
2022/08/12 11:46:49;;;;;;;2.28;1.90;;;29.60;39.10;;;;;;5054808;28;20044;-64
2022/08/12 11:49:20;;;;;;;4.20;1.60;;;29.70;37.40;;;;;;5053850;28;20052;-64
2022/08/12 11:51:58;;;;;;;1.52;1.42;;;29.70;36.30;;;;;;5053586;28;20048;-62
2022/08/12 11:54:25;;;;;;;3.95;1.92;;;29.60;36.80;;;;;;5052554;28;20103;-63
2022/08/12 11:56:59;;;;;;;1.77;1.45;;;29.70;37.10;;;;;;5053723;28;20559;-63
2022/08/12 11:59:30;;;;;;;2.40;1.50;;;29.60;36.80;;;;;;5055773;28;20057;-63
2022/08/12 12:02:17;;;;;;;4.70;1.67;;;29.60;37.90;;;;;;5058169;28;20434;-63
2022/08/12 12:04:49;;;;;;;4.88;2.03;;;29.80;38.20;;;;;;5057507;28;20032;-63
2022/08/12 12:07:22;;;;;;;1.92;1.65;;;29.80;35.30;;;;;;5057319;28;20068;-64
2022/08/12 12:10:14;;;;;;;2.90;1.70;;;29.90;36.10;;;;;;5058659;28;20047;-64
2022/08/12 12:12:42;;;;;;;2.83;1.50;;;30.00;35.30;;;;;;5057655;28;20051;-64
2022/08/12 12:15:17;;;;;;;1.35;1.25;;;30.10;37.50;;;;;;5058038;28;20118;-64
2022/08/12 12:17:51;;;;;;;10.43;1.70;;;30.10;36.30;;;;;;5057277;28;20123;-64
2022/08/12 12:20:21;;;;;;;1.40;1.20;;;30.10;34.70;;;;;;5057940;28;20051;-64
2022/08/12 12:22:53;;;;;;;2.22;1.48;;;30.20;35.60;;;;;;5056474;28;20048;-63
2022/08/12 12:25:20;;;;;;;4.47;1.80;;;30.20;35.80;;;;;;5057445;28;20048;-64
2022/08/12 12:28:07;;;;;;;6.38;1.50;;;30.10;35.20;;;;;;5056477;28;20072;-63
2022/08/12 12:30:53;;;;;;;6.07;1.67;;;30.10;36.20;;;;;;5057258;28;20102;-63
2022/08/12 12:33:21;;;;;;;4.30;1.70;;;29.90;35.40;;;;;;5056882;28;20079;-63
2022/08/12 12:35:48;;;;;;;4.55;1.40;;;29.80;35.00;;;;;;5056667;28;20059;-63
2022/08/12 12:38:34;;;;;;;1.58;1.48;;;29.80;34.80;;;;;;5057823;28;20679;-63
2022/08/12 12:41:02;;;;;;;2.58;1.55;;;29.80;35.70;;;;;;5036815;28;20435;-62
2022/08/12 12:43:42;;;;;;;2.13;1.60;;;29.90;34.40;;;;;;5037193;28;20049;-64
2022/08/12 12:46:29;;;;;;;5.38;1.60;;;29.80;35.10;;;;;;5037370;28;20512;-63
2022/08/12 12:48:56;;;;;;;3.97;1.58;;;29.80;36.00;;;;;;5036417;28;20037;-63
2022/08/12 12:51:23;;;;;;;3.17;1.70;;;29.80;36.60;;;;;;5050437;28;20153;-63
2022/08/12 12:54:10;;;;;;;5.05;1.60;;;29.80;37.50;;;;;;5056579;28;20101;-62
2022/08/12 12:56:41;;;;;;;1.92;1.48;;;29.80;35.20;;;;;;5057590;28;20044;-63
2022/08/12 12:59:09;;;;;;;4.20;1.65;;;29.80;36.50;;;;;;5057424;28;20048;-63
2022/08/12 13:02:05;;;;;;;2.10;1.67;;;29.90;35.80;;;;;;5057602;28;20521;-63
2022/08/12 13:04:34;;;;;;;5.70;1.48;;;29.90;35.30;;;;;;5056559;28;20067;-64
2022/08/12 13:07:03;;;;;;;4.32;1.77;;;29.80;34.80;;;;;;5056285;28;20052;-64
2022/08/12 13:09:32;;;;;;;1.88;1.77;;;29.80;36.10;;;;;;5055012;28;20626;-64
2022/08/12 13:12:07;;;;;;;1.67;1.58;;;29.80;36.40;;;;;;5055488;28;20192;-63
2022/08/12 13:14:36;;;;;;;4.28;1.52;;;29.90;35.60;;;;;;5055906;28;20075;-63
2022/08/12 13:17:08;;;;;;;3.38;1.10;;;30.00;35.10;;;;;;5056529;28;20044;-64
2022/08/12 13:19:35;;;;;;;2.38;1.60;;;30.10;35.10;;;;;;5057206;28;20075;-63
2022/08/12 13:22:17;;;;;;;1.75;1.45;;;30.10;34.50;;;;;;5056284;28;20118;-63
2022/08/12 13:24:51;;;;;;;3.17;1.45;;;30.10;35.60;;;;;;5056451;28;20080;-63
2022/08/12 13:27:44;;;;;;;6.45;2.10;;;30.10;33.10;;;;;;5056801;28;20525;-62
2022/08/12 13:30:24;;;;;;;4.10;1.42;;;30.20;31.90;;;;;;5056833;28;20070;-63
2022/08/12 13:32:56;;;;;;;8.63;1.38;;;30.20;33.30;;;;;;5056328;28;20044;-63
2022/08/12 13:35:34;;;;;;;1.95;1.65;;;30.20;33.50;;;;;;5056304;28;20481;-62
2022/08/12 13:38:37;;;;;;;2.78;1.30;;;30.30;34.20;;;;;;5056924;28;20304;-63
2022/08/12 13:41:06;;;;;;;2.47;1.50;;;30.50;33.80;;;;;;5044654;28;20041;-63
2022/08/12 13:43:37;;;;;;;5.45;1.58;;;30.50;33.50;;;;;;5036089;28;20045;-63
2022/08/12 13:46:08;;;;;;;1.95;1.35;;;30.40;33.70;;;;;;5044016;28;20823;-63
2022/08/12 13:48:39;;;;;;;2.08;1.80;;;30.40;32.90;;;;;;5057041;28;20043;-62
2022/08/12 13:51:12;;;;;;;2.30;1.45;;;30.20;32.90;;;;;;5055949;28;20094;-63
2022/08/12 13:53:39;;;;;;;5.75;1.50;;;30.10;32.30;;;;;;5055812;28;20041;-63
2022/08/12 13:56:25;;;;;;;2.22;1.30;;;29.90;33.40;;;;;;5056087;28;20037;-63
2022/08/12 13:59:04;;;;;;;5.32;1.77;;;29.90;32.70;;;;;;5056219;28;20119;-62
2022/08/12 14:01:34;;;;;;;1.98;1.48;;;29.90;32.90;;;;;;5054822;28;20148;-62
2022/08/12 14:04:08;;;;;;;2.50;1.30;;;29.90;33.60;;;;;;5054432;28;20036;-63
2022/08/12 14:06:38;;;;;;;1.52;1.20;;;29.90;34.60;;;;;;5056287;28;20812;-63
2022/08/12 14:09:06;;;;;;;4.07;1.40;;;29.90;33.60;;;;;;5056471;28;20136;-63
2022/08/12 14:11:44;;;;;;;1.45;1.33;;;29.80;31.60;;;;;;5055148;28;20052;-62
2022/08/12 14:14:26;;;;;;;2.22;1.35;;;29.80;32.60;;;;;;5055646;28;20147;-62
2022/08/12 14:16:52;;;;;;;2.60;1.15;;;29.80;33.70;;;;;;5055372;28;20138;-62
2022/08/12 14:19:19;;;;;;;1.60;1.48;;;29.70;34.30;;;;;;5056021;28;20545;-62
2022/08/12 14:21:52;;;;;;;4.32;1.98;;;29.70;34.20;;;;;;5055077;28;20046;-63
2022/08/12 14:24:26;;;;;;;6.40;1.50;;;29.70;34.60;;;;;;5054692;28;20395;-63
2022/08/12 14:26:56;;;;;;;3.75;1.58;;;29.70;34.70;;;;;;5054797;28;20102;-64
2022/08/12 14:29:28;;;;;;;4.30;1.65;;;29.50;35.40;;;;;;5053545;28;20097;-64
2022/08/12 14:32:16;;;;;;;;;;;29.40;35.40;;;;;;5054388;28;20071;-63
2022/08/12 14:34:45;;;;;;;5.55;1.45;;;29.40;36.50;;;;;;5054780;28;19935;-61
2022/08/12 14:37:12;;;;;;;5.70;1.70;;;29.50;35.70;;;;;;5054219;28;20102;-65
2022/08/12 14:39:59;;;;;;;2.85;1.52;;;29.50;36.20;;;;;;5055346;28;20448;-62
2022/08/12 14:42:27;;;;;;;1.48;1.25;;;29.50;37.40;;;;;;5037626;28;20087;-64
2022/08/12 14:44:56;;;;;;;1.60;1.13;;;29.40;36.40;;;;;;5052623;28;20052;-63
2022/08/12 14:47:28;;;;;;;2.90;1.40;;;29.50;35.00;;;;;;5055724;28;20427;-66
2022/08/12 14:50:02;;;;;;;4.25;1.95;;;29.60;35.30;;;;;;5056031;28;20045;-66
2022/08/12 14:52:50;;;;;;;3.75;1.60;;;29.60;36.90;;;;;;5054618;28;20152;-65
2022/08/12 14:55:40;;;;;;;2.97;1.55;;;29.50;36.70;;;;;;5053344;28;20049;-63
2022/08/12 14:58:27;;;;;;;3.13;1.63;;;29.50;35.90;;;;;;5051306;28;20041;-62
2022/08/12 15:03:48;;;;;;;3.88;1.42;;;29.00;36.20;;;;;;5052585;28;20044;-63
2022/08/12 15:06:25;;;;;;;5.50;1.95;;;28.90;35.40;;;;;;5053998;28;20122;-61
2022/08/12 15:09:12;;;;;;;2.45;1.65;;;28.80;36.30;;;;;;5053866;28;20045;-62
2022/08/12 15:11:40;;;;;;;4.55;1.70;;;28.80;36.00;;;;;;5052351;28;20106;-62
2022/08/12 15:14:21;;;;;;;4.68;1.35;;;28.60;36.60;;;;;;5052513;28;20076;-62
2022/08/12 15:16:48;;;;;;;4.82;1.60;;;28.60;38.30;;;;;;5053399;28;20052;-62
2022/08/12 15:19:15;;;;;;;6.03;1.80;;;28.50;39.10;;;;;;5053849;28;20048;-62